Tropical Cyclones
[Index]
Main Index Home Page Stock Weather Photos Extreme Storms Discussion Storm News and Storm Chasing Reports Tropical Cyclones / Hurricanes / Typhoons Weather Data and Links Wild Fires / Bushfires Weather Observation Techniques Weather Picture Catalogue Tornado Pictures and Reports Stock Video Footage and DVDs for sale
Season 2015-2016 Tropical Cyclone ANNABELLE Track Map
Season 2015-2016 Summaries (Operational Data): [AU] [SIO] [SPAC] [SH]
<<- Previous TC | 2015-2016 Season | Next TC ->>

click for intensity scale information  Lat/long Grid: Show Hide

 Date Labels: Show Hide

Operational Tropical Cyclone Data : JTWC Advisories

Name: ANNABELLE
Number: 1603

17 Nov 2015 12:00 UTC to 28 Nov 2015 12:00 UTC

    date/time    lat    long     hPa   cat  kts
2015-11-17 12    3.7    82.7                 15          
2015-11-17 18    4.3    82.4    1010         15          
2015-11-18 00    6.5    83.3    1007         20          
2015-11-18 06    3.3    82.0    1007         20          
2015-11-18 12    4.7    81.2    1007         20          
2015-11-18 18    5.6    80.2    1007         20          
2015-11-19 00    6.4    79.1    1004         25          
2015-11-19 06    6.9    78.1    1004         25          
2015-11-19 12    7.8    77.2    1004         25          
2015-11-19 18    8.8    76.1    1004         25          
2015-11-20 00    9.5    74.8    1004         25          
2015-11-20 06    9.9    73.1    1000         30          
2015-11-20 12    9.9    71.7     996    1    35          
2015-11-20 18   10.1    71.0     996    1    35          
2015-11-21 00   10.2    70.7     996    1    35          
2015-11-21 06   10.4    71.4     989    1    45          
2015-11-21 12   10.9    71.6     989    1    45          
2015-11-21 18   11.5    71.5     985    2    50          
2015-11-22 00   11.5    71.3     985    2    50          
2015-11-22 06   12.0    71.4     985    2    50          
2015-11-22 12   12.7    72.2     982    2    55          
2015-11-22 18   13.4    72.6     982    2    55          
2015-11-23 00   14.3    73.5     978    2    60          
2015-11-23 06   15.2    74.8     978    2    60          
2015-11-23 12   16.7    76.7     982    2    55          
2015-11-23 18   18.3    77.5     989    1    45          
2015-11-24 00   19.7    78.5     989    1    45          
2015-11-24 06   20.6    80.1     993    1    40          
2015-11-24 12   22.8    81.3     996    1    35          
2015-11-24 18   23.7    80.8     996    1    35          
2015-11-25 00   24.8    80.8    1000         30          
2015-11-25 12   25.1    81.5    1000         30          
2015-11-25 18   25.3    81.6    1004         25          
2015-11-26 00   25.4    81.4    1004         25          
2015-11-26 06   25.0    80.7    1004         25          
2015-11-26 12   24.7    79.9    1004         25          
2015-11-26 18   24.1    79.4    1004         25          
2015-11-27 00   23.7    78.9                 25          
2015-11-27 06   22.9    77.5                             
2015-11-27 12   22.5    75.3                             
2015-11-27 18   22.2    75.2                             
2015-11-28 00   22.2    72.8                             
2015-11-28 06   22.3    72.2                             
2015-11-28 12   23.5    70.5                             
Winds are 10-min average.

Tropical cyclone tracks developed by Michael Bath using operational warnings and advisories and Google Maps.


[Australian Severe Weather index] [Copyright Notice] [Email Contacts] [Search This Site] [Privacy Policy]
Document: tropical_cyclone_annabelle.htm Updated: 2 May 2017